createdAt,value
2022-08-31T00:00:14.132Z,19.60
2022-08-31T00:02:59.263Z,19.60
2022-08-31T00:05:26.206Z,19.60
2022-08-31T00:07:53.221Z,19.60
2022-08-31T00:10:31.923Z,19.60
2022-08-31T00:13:02.914Z,19.60
2022-08-31T00:15:30.472Z,19.60
2022-08-31T00:17:58.520Z,19.60
2022-08-31T00:20:34.218Z,19.60
2022-08-31T00:23:08.712Z,19.60
2022-08-31T00:25:39.142Z,19.60
2022-08-31T00:28:07.395Z,19.60
2022-08-31T00:30:34.793Z,19.50
2022-08-31T00:33:03.492Z,19.50
2022-08-31T00:35:33.870Z,19.50
2022-08-31T00:38:00.735Z,19.50
2022-08-31T00:40:28.303Z,19.40
2022-08-31T00:42:56.219Z,19.40
2022-08-31T00:45:24.202Z,19.40
2022-08-31T00:47:52.034Z,19.40
2022-08-31T00:50:21.694Z,19.40
2022-08-31T00:52:54.286Z,19.40
2022-08-31T00:55:36.299Z,19.30
2022-08-31T00:58:11.406Z,19.30
2022-08-31T01:00:43.050Z,19.30
2022-08-31T01:03:10.897Z,19.30
2022-08-31T01:05:39.724Z,19.20
2022-08-31T01:08:07.692Z,19.20
2022-08-31T01:10:43.823Z,19.20
2022-08-31T01:13:13.915Z,19.20
2022-08-31T01:15:53.993Z,19.20
2022-08-31T01:18:23.942Z,19.10
2022-08-31T01:21:11.707Z,19.10
2022-08-31T01:23:44.662Z,19.00
2022-08-31T01:26:19.929Z,19.00
2022-08-31T01:28:47.746Z,19.00
2022-08-31T01:31:22.471Z,18.90
2022-08-31T01:33:49.588Z,18.90
2022-08-31T01:36:18.709Z,18.90
2022-08-31T01:38:46.342Z,18.90
2022-08-31T01:41:20.195Z,18.80
2022-08-31T01:43:47.153Z,18.80
2022-08-31T01:46:15.017Z,18.80
2022-08-31T01:48:44.980Z,18.80
2022-08-31T01:51:15.221Z,18.80
2022-08-31T01:53:45.717Z,18.70
2022-08-31T01:56:27.169Z,18.70
2022-08-31T01:58:56.861Z,18.70
2022-08-31T02:01:44.638Z,18.70
2022-08-31T02:04:15.327Z,18.60
2022-08-31T02:06:47.209Z,18.60
2022-08-31T02:09:15.528Z,18.60
2022-08-31T02:11:43.190Z,18.60
2022-08-31T02:14:10.583Z,18.50
2022-08-31T02:16:39.699Z,18.50
2022-08-31T02:19:09.381Z,18.50
2022-08-31T02:21:37.341Z,18.50
2022-08-31T02:24:04.945Z,18.40
2022-08-31T02:26:32.346Z,18.40
2022-08-31T02:28:59.792Z,18.40
2022-08-31T02:31:26.967Z,18.40
2022-08-31T02:33:59.731Z,18.40
2022-08-31T02:36:26.821Z,18.40
2022-08-31T02:38:54.786Z,18.30
2022-08-31T02:41:22.973Z,18.30
2022-08-31T02:43:49.912Z,18.30
2022-08-31T02:46:18.084Z,18.20
2022-08-31T02:48:54.815Z,18.20
2022-08-31T02:51:21.879Z,18.20
2022-08-31T02:53:49.680Z,18.10
2022-08-31T02:56:16.989Z,18.10
2022-08-31T02:58:44.001Z,18.10
2022-08-31T03:01:11.220Z,18.10
2022-08-31T03:03:38.735Z,18.10
2022-08-31T03:06:06.109Z,18.10
2022-08-31T03:08:33.309Z,18.10
2022-08-31T03:11:01.148Z,18.00
2022-08-31T03:13:29.784Z,18.00
2022-08-31T03:15:57.264Z,18.00
2022-08-31T03:18:24.636Z,18.00
2022-08-31T03:20:51.629Z,18.00
2022-08-31T03:23:18.738Z,18.00
2022-08-31T03:25:47.683Z,18.00
2022-08-31T03:28:15.090Z,18.00
2022-08-31T03:30:49.364Z,17.90
2022-08-31T03:33:17.058Z,17.90
2022-08-31T03:35:46.050Z,17.90
2022-08-31T03:38:15.997Z,17.90
2022-08-31T03:40:44.847Z,17.90
2022-08-31T03:43:13.742Z,17.80
2022-08-31T03:45:42.990Z,17.80
2022-08-31T03:48:12.725Z,17.80
2022-08-31T03:50:43.040Z,17.80
2022-08-31T03:53:21.798Z,17.80
2022-08-31T03:55:51.180Z,17.70
2022-08-31T03:58:18.147Z,17.70
2022-08-31T04:00:45.422Z,17.70
2022-08-31T04:03:29.850Z,17.70
2022-08-31T04:06:19.306Z,17.60
2022-08-31T04:09:05.060Z,17.60
2022-08-31T04:11:52.137Z,17.60
2022-08-31T04:14:45.376Z,17.60
2022-08-31T04:17:32.924Z,17.50
2022-08-31T04:20:19.789Z,17.50
2022-08-31T04:22:56.347Z,17.50
2022-08-31T04:25:41.273Z,17.50
2022-08-31T04:28:09.342Z,17.50
2022-08-31T04:30:43.347Z,17.40
2022-08-31T04:33:14.919Z,17.40
2022-08-31T04:35:43.158Z,17.40
2022-08-31T04:38:11.196Z,17.40
2022-08-31T04:40:42.471Z,17.40
2022-08-31T04:43:10.050Z,17.40
2022-08-31T04:45:42.494Z,17.30
2022-08-31T04:48:13.121Z,17.30
2022-08-31T04:50:42.890Z,17.20
2022-08-31T04:53:11.124Z,17.20
2022-08-31T04:55:42.460Z,17.20
2022-08-31T04:58:12.679Z,17.20
2022-08-31T05:00:43.775Z,17.20
2022-08-31T05:03:17.915Z,17.10
2022-08-31T05:05:50.687Z,17.10
2022-08-31T05:08:18.463Z,17.10
2022-08-31T05:10:45.730Z,17.10
2022-08-31T05:13:12.875Z,17.00
2022-08-31T05:15:43.304Z,17.00
2022-08-31T05:18:12.996Z,17.00
2022-08-31T05:20:48.153Z,17.00
2022-08-31T05:23:15.004Z,17.00
2022-08-31T05:25:43.613Z,17.00
2022-08-31T05:28:10.867Z,17.00
2022-08-31T05:30:38.344Z,17.00
2022-08-31T05:33:08.923Z,17.00
2022-08-31T05:35:37.508Z,17.00
2022-08-31T05:38:04.779Z,17.10
2022-08-31T05:40:31.748Z,17.00
2022-08-31T05:42:59.560Z,17.00
2022-08-31T05:45:26.795Z,17.00
2022-08-31T05:47:53.747Z,17.10
2022-08-31T05:50:20.785Z,17.10
2022-08-31T05:52:47.962Z,17.10
2022-08-31T05:55:15.261Z,17.20
2022-08-31T05:57:42.973Z,17.20
2022-08-31T06:00:10.917Z,17.20
2022-08-31T06:02:43.090Z,17.20
2022-08-31T06:05:13.061Z,17.20
2022-08-31T06:07:40.885Z,17.30
2022-08-31T06:10:11.364Z,17.30
2022-08-31T06:12:40.174Z,17.30
2022-08-31T06:15:07.504Z,17.30
2022-08-31T06:17:35.155Z,17.40
2022-08-31T06:20:05.806Z,17.40
2022-08-31T06:22:36.221Z,17.50
2022-08-31T06:25:06.982Z,17.50
2022-08-31T06:27:37.508Z,17.60
2022-08-31T06:30:07.221Z,17.60
2022-08-31T06:32:34.191Z,17.70
2022-08-31T06:35:03.561Z,17.80
2022-08-31T06:37:50.023Z,17.80
2022-08-31T06:40:54.995Z,17.90
2022-08-31T06:44:12.417Z,17.90
2022-08-31T06:46:57.210Z,18.00
2022-08-31T06:49:26.295Z,18.10
2022-08-31T06:51:53.350Z,18.10
2022-08-31T06:54:35.758Z,18.20
2022-08-31T06:57:21.496Z,18.10
2022-08-31T07:00:14.493Z,18.10
2022-08-31T07:03:21.390Z,18.00
2022-08-31T07:05:49.219Z,18.10
2022-08-31T07:08:16.632Z,18.00
2022-08-31T07:10:43.670Z,18.00
2022-08-31T07:13:11.598Z,18.00
2022-08-31T07:15:39.149Z,18.10
2022-08-31T07:18:10.293Z,18.10
2022-08-31T07:20:37.573Z,18.20
2022-08-31T07:23:07.736Z,18.30
2022-08-31T07:25:39.452Z,18.30
2022-08-31T07:28:06.767Z,18.40
2022-08-31T07:30:41.980Z,18.50
2022-08-31T07:33:10.869Z,18.50
2022-08-31T07:35:42.752Z,18.60
2022-08-31T07:38:36.295Z,18.80
2022-08-31T07:41:29.304Z,18.90
2022-08-31T07:43:59.563Z,19.00
2022-08-31T07:46:31.727Z,19.10
2022-08-31T07:48:59.650Z,19.30
2022-08-31T07:51:35.412Z,19.50
2022-08-31T07:54:28.456Z,19.80
2022-08-31T07:57:11.182Z,20.00
2022-08-31T07:59:39.355Z,20.30
2022-08-31T08:02:08.400Z,20.50
2022-08-31T08:04:39.099Z,20.60
2022-08-31T08:07:40.342Z,20.70
2022-08-31T08:10:15.565Z,20.80
2022-08-31T08:13:06.267Z,21.00
2022-08-31T08:15:50.674Z,21.30
2022-08-31T08:18:26.275Z,21.60
2022-08-31T08:20:57.315Z,21.80
2022-08-31T08:23:26.874Z,21.90
2022-08-31T08:26:21.436Z,22.00
2022-08-31T08:29:20.356Z,22.00
2022-08-31T08:31:51.226Z,22.00
2022-08-31T08:34:32.283Z,21.90
2022-08-31T08:37:01.416Z,22.00
2022-08-31T08:39:28.414Z,22.00
2022-08-31T08:42:10.902Z,22.20
2022-08-31T08:44:39.151Z,22.40
2022-08-31T08:47:21.413Z,22.70
2022-08-31T08:49:58.622Z,23.10
2022-08-31T08:52:44.493Z,23.40
2022-08-31T08:55:18.898Z,23.50
2022-08-31T08:57:52.156Z,23.80
2022-08-31T09:00:24.911Z,23.90
2022-08-31T09:03:08.205Z,24.10
2022-08-31T09:06:21.299Z,24.10
2022-08-31T09:09:28.999Z,24.30
2022-08-31T09:12:44.721Z,24.20
2022-08-31T09:15:57.775Z,24.50
2022-08-31T09:18:53.910Z,24.40
2022-08-31T09:21:34.362Z,24.30
2022-08-31T09:24:19.831Z,24.30
2022-08-31T09:27:19.100Z,24.30
2022-08-31T09:29:57.428Z,24.60
2022-08-31T09:32:35.571Z,24.90
2022-08-31T09:35:29.118Z,25.40
2022-08-31T09:38:06.908Z,26.00
2022-08-31T09:40:52.947Z,26.10
2022-08-31T09:43:23.929Z,26.20
2022-08-31T09:46:06.079Z,26.30
2022-08-31T09:48:56.422Z,26.50
2022-08-31T09:51:29.623Z,26.80
2022-08-31T09:54:46.788Z,26.90
2022-08-31T09:57:14.187Z,26.80
2022-08-31T09:59:49.210Z,26.50
2022-08-31T10:02:22.987Z,26.20
2022-08-31T10:04:59.091Z,26.10
2022-08-31T10:07:55.226Z,26.60
2022-08-31T10:10:33.237Z,27.00
2022-08-31T10:13:19.140Z,27.10
2022-08-31T10:16:06.911Z,27.10
2022-08-31T10:18:47.124Z,27.20
2022-08-31T10:21:27.091Z,27.40
2022-08-31T10:24:39.097Z,27.40
2022-08-31T10:27:18.633Z,27.50
2022-08-31T10:30:30.551Z,27.20
2022-08-31T10:33:19.119Z,27.10
2022-08-31T10:35:57.548Z,27.10
2022-08-31T10:38:40.211Z,26.80
2022-08-31T10:41:17.902Z,27.00
2022-08-31T10:44:16.879Z,27.40
2022-08-31T10:47:00.032Z,27.80
2022-08-31T10:49:27.192Z,28.10
2022-08-31T10:52:05.144Z,28.10
2022-08-31T10:55:06.530Z,27.90
2022-08-31T10:57:59.087Z,27.70
2022-08-31T11:00:45.679Z,27.90
2022-08-31T11:04:12.925Z,28.30
2022-08-31T11:07:07.365Z,28.70
2022-08-31T11:10:23.309Z,29.00
2022-08-31T11:13:00.989Z,29.10
2022-08-31T11:15:51.533Z,29.30
2022-08-31T11:18:44.008Z,29.40
2022-08-31T11:21:36.630Z,29.40
2022-08-31T11:25:03.172Z,29.80
2022-08-31T11:27:41.579Z,30.30
2022-08-31T11:30:26.641Z,30.80
2022-08-31T11:33:00.504Z,30.70
2022-08-31T11:35:49.530Z,30.30
2022-08-31T11:39:01.678Z,29.70
2022-08-31T11:41:46.542Z,29.10
2022-08-31T11:44:34.331Z,28.60
2022-08-31T11:47:26.711Z,28.40
2022-08-31T11:50:10.776Z,28.40
2022-08-31T11:52:41.138Z,28.10
2022-08-31T11:55:23.802Z,28.00
2022-08-31T11:58:20.669Z,27.90
2022-08-31T12:01:28.363Z,27.90
2022-08-31T12:04:03.408Z,27.80
2022-08-31T12:06:37.854Z,27.60
2022-08-31T12:09:23.790Z,27.50
2022-08-31T12:12:19.665Z,27.40
2022-08-31T12:15:32.904Z,27.30
2022-08-31T12:18:45.963Z,27.30
2022-08-31T12:21:44.740Z,27.30
2022-08-31T12:24:26.260Z,27.70
2022-08-31T12:27:13.839Z,27.80
2022-08-31T12:29:41.566Z,27.70
2022-08-31T12:32:28.717Z,27.60
2022-08-31T12:34:58.280Z,27.70
2022-08-31T12:37:33.013Z,28.10
2022-08-31T12:40:20.211Z,28.70
2022-08-31T12:42:58.696Z,29.20
2022-08-31T12:46:16.260Z,29.40
2022-08-31T12:49:04.642Z,29.50
2022-08-31T12:52:00.110Z,29.40
2022-08-31T12:55:17.208Z,29.30
2022-08-31T12:58:14.415Z,29.40
2022-08-31T13:00:43.470Z,29.60
2022-08-31T13:03:17.089Z,29.70
2022-08-31T13:06:13.453Z,29.60
2022-08-31T13:08:46.073Z,29.60
2022-08-31T13:11:33.112Z,29.60
2022-08-31T13:14:24.352Z,29.70
2022-08-31T13:16:54.198Z,30.00
2022-08-31T13:19:26.408Z,29.90
2022-08-31T13:21:59.893Z,30.00
2022-08-31T13:24:36.255Z,30.20
2022-08-31T13:27:08.057Z,30.40
2022-08-31T13:29:44.184Z,30.60
2022-08-31T13:32:35.953Z,30.60
2022-08-31T13:35:10.986Z,30.40
2022-08-31T13:37:44.568Z,30.10
2022-08-31T13:40:17.273Z,29.70
2022-08-31T13:42:56.599Z,29.40
2022-08-31T13:45:58.257Z,29.10
2022-08-31T13:48:35.268Z,28.80
2022-08-31T13:51:16.606Z,28.50
2022-08-31T13:53:52.944Z,28.30
2022-08-31T13:56:49.088Z,28.20
2022-08-31T13:59:23.527Z,28.20
2022-08-31T14:01:59.485Z,28.10
2022-08-31T14:04:49.595Z,27.90
2022-08-31T14:07:31.419Z,27.90
2022-08-31T14:10:04.352Z,27.80
2022-08-31T14:12:46.049Z,27.70
2022-08-31T14:15:50.057Z,27.60
2022-08-31T14:18:28.451Z,27.70
2022-08-31T14:21:23.872Z,28.00
2022-08-31T14:24:07.661Z,28.30
2022-08-31T14:26:46.569Z,28.70
2022-08-31T14:29:17.404Z,29.10
2022-08-31T14:31:53.555Z,29.40
2022-08-31T14:34:49.107Z,29.50
2022-08-31T14:37:23.801Z,29.80
2022-08-31T14:40:05.662Z,30.00
2022-08-31T14:42:41.513Z,30.00
2022-08-31T14:48:14.470Z,29.90
2022-08-31T14:50:41.396Z,29.70
2022-08-31T14:53:10.174Z,29.70
2022-08-31T14:55:41.107Z,29.70
2022-08-31T14:58:14.155Z,29.70
2022-08-31T15:00:49.770Z,29.90
2022-08-31T15:03:24.163Z,29.90
2022-08-31T15:05:51.168Z,29.60
2022-08-31T15:08:20.183Z,29.30
2022-08-31T15:10:51.494Z,29.20
2022-08-31T15:13:18.221Z,29.40
2022-08-31T15:15:47.725Z,29.60
2022-08-31T15:18:14.771Z,29.60
2022-08-31T15:20:45.477Z,29.80
2022-08-31T15:23:12.244Z,29.70
2022-08-31T15:26:08.574Z,29.40
2022-08-31T15:28:41.874Z,29.20
2022-08-31T15:31:21.253Z,29.30
2022-08-31T15:33:49.534Z,29.30
2022-08-31T15:36:18.316Z,29.30
2022-08-31T15:38:45.489Z,29.20
2022-08-31T15:41:13.120Z,29.20
2022-08-31T15:43:41.388Z,29.20
2022-08-31T15:46:14.146Z,29.10
2022-08-31T15:48:41.739Z,28.90
2022-08-31T15:51:20.601Z,28.60
2022-08-31T15:54:18.446Z,28.40
2022-08-31T15:56:42.725Z,28.20
2022-08-31T15:59:12.847Z,28.00
2022-08-31T16:01:40.880Z,28.00
2022-08-31T16:04:23.291Z,28.00
2022-08-31T16:06:52.475Z,28.10
2022-08-31T16:09:21.184Z,28.10
2022-08-31T16:11:50.327Z,28.00
2022-08-31T16:14:18.478Z,27.90
2022-08-31T16:16:49.176Z,27.90
2022-08-31T16:19:34.109Z,27.90
2022-08-31T16:22:02.977Z,27.80
2022-08-31T16:24:37.012Z,27.80
2022-08-31T16:27:11.364Z,27.60
2022-08-31T16:29:40.052Z,27.50
2022-08-31T16:32:08.474Z,27.50
2022-08-31T16:34:39.469Z,27.50
2022-08-31T16:37:08.045Z,27.50
2022-08-31T16:39:37.600Z,27.50
2022-08-31T16:42:07.668Z,27.50
2022-08-31T16:44:36.481Z,27.40
2022-08-31T16:47:06.644Z,27.20
2022-08-31T16:49:36.041Z,27.00
2022-08-31T16:52:19.087Z,26.90
2022-08-31T16:54:51.026Z,26.80
2022-08-31T16:57:23.506Z,26.70
2022-08-31T16:59:51.319Z,26.60
2022-08-31T17:02:20.182Z,26.50
2022-08-31T17:04:52.646Z,26.40
2022-08-31T17:07:22.315Z,26.20
2022-08-31T17:09:49.306Z,26.20
2022-08-31T17:12:19.330Z,26.10
2022-08-31T17:14:52.379Z,26.00
2022-08-31T17:17:25.237Z,25.90
2022-08-31T17:19:55.647Z,25.80
2022-08-31T17:22:31.819Z,25.70
2022-08-31T17:25:04.944Z,25.70
2022-08-31T17:27:34.663Z,25.60
2022-08-31T17:30:10.322Z,25.50
2022-08-31T17:36:14.273Z,25.20
2022-08-31T17:38:52.128Z,25.10
2022-08-31T17:41:22.847Z,25.00
2022-08-31T17:43:57.392Z,25.00
2022-08-31T17:46:31.342Z,24.90
2022-08-31T17:49:07.891Z,24.90
2022-08-31T17:51:39.489Z,24.80
2022-08-31T17:54:11.138Z,24.60
2022-08-31T17:56:48.752Z,24.60
2022-08-31T17:59:20.992Z,24.50
2022-08-31T18:01:51.898Z,24.40
2022-08-31T18:04:22.803Z,24.30
2022-08-31T18:06:54.972Z,24.30
2022-08-31T18:09:27.681Z,24.20
2022-08-31T18:11:55.590Z,24.10
2022-08-31T18:14:27.023Z,24.00
2022-08-31T18:16:56.561Z,24.00
2022-08-31T18:19:27.882Z,23.90
2022-08-31T18:21:56.951Z,23.90
2022-08-31T18:24:24.918Z,23.80
2022-08-31T18:26:53.191Z,23.80
2022-08-31T18:29:24.949Z,23.70
2022-08-31T18:31:58.436Z,23.60
2022-08-31T18:34:26.304Z,23.60
2022-08-31T18:36:58.641Z,23.60
2022-08-31T18:39:50.445Z,23.50
2022-08-31T18:42:34.970Z,23.40
2022-08-31T18:45:18.574Z,23.40
2022-08-31T18:50:44.408Z,23.30
2022-08-31T18:53:27.616Z,23.30
2022-08-31T18:56:04.787Z,23.20
2022-08-31T18:58:31.764Z,23.20
2022-08-31T19:00:59.127Z,23.10
2022-08-31T19:03:27.862Z,23.00
2022-08-31T19:05:56.674Z,23.00
2022-08-31T19:08:25.057Z,22.90
2022-08-31T19:10:54.258Z,22.90
2022-08-31T19:13:21.300Z,22.70
2022-08-31T19:15:48.649Z,22.70
2022-08-31T19:18:16.050Z,22.60
2022-08-31T19:20:43.464Z,22.50
2022-08-31T19:23:10.506Z,22.50
2022-08-31T19:25:43.494Z,22.40
2022-08-31T19:28:11.720Z,22.40
2022-08-31T19:30:39.243Z,22.30
2022-08-31T19:33:12.593Z,22.20
2022-08-31T19:35:39.883Z,22.10
2022-08-31T19:38:07.432Z,22.10
2022-08-31T19:40:40.216Z,22.10
2022-08-31T19:45:55.138Z,21.90
2022-08-31T19:48:23.695Z,21.80
2022-08-31T19:50:51.536Z,21.80
2022-08-31T19:53:21.891Z,21.70
2022-08-31T19:55:53.782Z,21.70
2022-08-31T19:58:26.745Z,21.60
2022-08-31T20:01:02.483Z,21.60
2022-08-31T20:03:31.901Z,21.50
2022-08-31T20:06:00.169Z,21.40
2022-08-31T20:08:27.183Z,21.40
2022-08-31T20:10:54.065Z,21.30
2022-08-31T20:13:24.641Z,21.30
2022-08-31T20:15:52.951Z,21.30
2022-08-31T20:18:20.838Z,21.20
2022-08-31T20:20:51.016Z,21.20
2022-08-31T20:23:21.123Z,21.20
2022-08-31T20:25:51.547Z,21.10
2022-08-31T20:28:27.209Z,21.10
2022-08-31T20:30:59.141Z,21.10
2022-08-31T20:33:28.184Z,21.10
2022-08-31T20:35:55.308Z,21.10
2022-08-31T20:38:22.421Z,21.00
2022-08-31T20:40:55.219Z,21.00
2022-08-31T20:43:23.652Z,21.00
2022-08-31T20:45:51.058Z,21.00
2022-08-31T20:48:36.341Z,20.90
2022-08-31T20:51:20.017Z,20.90
2022-08-31T20:53:48.808Z,20.90
2022-08-31T20:56:18.378Z,20.80
2022-08-31T20:58:46.185Z,20.80
2022-08-31T21:01:15.831Z,20.70
2022-08-31T21:03:42.701Z,20.70
2022-08-31T21:06:13.747Z,20.70
2022-08-31T21:08:42.388Z,20.70
2022-08-31T21:11:12.577Z,20.60
2022-08-31T21:13:39.502Z,20.60
2022-08-31T21:16:06.747Z,20.60
2022-08-31T21:18:34.920Z,20.60
2022-08-31T21:21:12.954Z,20.50
2022-08-31T21:23:40.096Z,20.50
2022-08-31T21:26:09.755Z,20.50
2022-08-31T21:28:40.145Z,20.50
2022-08-31T21:31:16.456Z,20.40
2022-08-31T21:34:01.966Z,20.40
2022-08-31T21:36:33.020Z,20.40
2022-08-31T21:39:00.623Z,20.40
2022-08-31T21:41:28.978Z,20.30
2022-08-31T21:43:57.064Z,20.30
2022-08-31T21:46:28.403Z,20.30
2022-08-31T21:48:58.651Z,20.30
2022-08-31T21:51:53.336Z,20.30
2022-08-31T21:54:25.998Z,20.20
2022-08-31T21:56:57.767Z,20.30
2022-08-31T21:59:28.217Z,20.20
2022-08-31T22:02:04.025Z,20.20
2022-08-31T22:04:34.193Z,20.20
2022-08-31T22:07:03.447Z,20.20
2022-08-31T22:09:31.431Z,20.20
2022-08-31T22:11:59.924Z,20.10
2022-08-31T22:14:32.654Z,20.20
2022-08-31T22:17:03.686Z,20.10
2022-08-31T22:19:34.099Z,20.10
2022-08-31T22:22:00.991Z,20.10
2022-08-31T22:24:32.202Z,20.10
2022-08-31T22:27:03.243Z,20.20
2022-08-31T22:29:33.138Z,20.20
2022-08-31T22:32:08.417Z,20.20
2022-08-31T22:34:37.019Z,20.20
2022-08-31T22:37:05.179Z,20.10
2022-08-31T22:39:33.047Z,20.10
2022-08-31T22:42:01.413Z,20.10
2022-08-31T22:44:35.271Z,20.10
2022-08-31T22:47:04.282Z,20.00
2022-08-31T22:49:31.702Z,20.00
2022-08-31T22:51:58.702Z,20.00
2022-08-31T22:54:26.196Z,19.90
2022-08-31T22:56:54.388Z,19.90
2022-08-31T22:59:27.469Z,19.90
2022-08-31T23:02:03.266Z,19.90
2022-08-31T23:04:34.314Z,19.90
2022-08-31T23:07:04.209Z,19.80
2022-08-31T23:09:33.756Z,19.80
2022-08-31T23:12:04.518Z,19.80
2022-08-31T23:14:34.969Z,19.70
2022-08-31T23:17:08.997Z,19.70
2022-08-31T23:19:43.549Z,19.70
2022-08-31T23:22:15.166Z,19.70
2022-08-31T23:24:51.597Z,19.60
2022-08-31T23:27:21.636Z,19.60
2022-08-31T23:29:54.763Z,19.60
2022-08-31T23:32:27.529Z,19.60
2022-08-31T23:34:57.981Z,19.60
2022-08-31T23:37:30.641Z,19.60
2022-08-31T23:39:59.768Z,19.50
2022-08-31T23:42:28.818Z,19.50
2022-08-31T23:44:56.025Z,19.40
2022-08-31T23:47:28.922Z,19.40
2022-08-31T23:49:58.093Z,19.40
2022-08-31T23:52:29.104Z,19.40
2022-08-31T23:54:59.540Z,19.40
2022-08-31T23:57:32.441Z,19.30
